createdAt,value
2022-10-29T00:02:11.985Z,63.46
2022-10-29T00:04:38.647Z,63.28
2022-10-29T00:07:05.295Z,62.95
2022-10-29T00:09:31.994Z,62.90
2022-10-29T00:11:58.740Z,63.47
2022-10-29T00:14:25.754Z,62.75
2022-10-29T00:16:52.554Z,62.84
2022-10-29T00:19:19.345Z,62.40
2022-10-29T00:21:45.984Z,62.34
2022-10-29T00:24:12.575Z,62.39
2022-10-29T00:26:39.158Z,62.62
2022-10-29T00:29:05.969Z,62.20
2022-10-29T00:31:32.741Z,61.58
2022-10-29T00:33:59.322Z,61.74
2022-10-29T00:36:28.612Z,61.69
2022-10-29T00:38:57.726Z,61.53
2022-10-29T00:41:27.144Z,61.76
2022-10-29T00:44:15.704Z,61.00
2022-10-29T00:46:47.581Z,61.28
2022-10-29T00:49:15.917Z,60.90
2022-10-29T00:51:43.528Z,60.59
2022-10-29T00:54:12.270Z,61.22
2022-10-29T00:56:44.724Z,61.48
2022-10-29T00:59:12.538Z,61.51
2022-10-29T01:01:39.714Z,61.65
2022-10-29T01:04:06.719Z,61.33
2022-10-29T01:06:33.607Z,61.99
2022-10-29T01:09:00.819Z,62.25
2022-10-29T01:11:58.345Z,61.85
2022-10-29T01:14:52.992Z,62.17
2022-10-29T01:17:32.884Z,62.88
2022-10-29T01:20:43.164Z,63.17
2022-10-29T01:23:19.027Z,63.83
2022-10-29T01:26:18.423Z,63.98
2022-10-29T01:33:08.670Z,64.10
2022-10-29T01:35:51.873Z,64.50
2022-10-29T01:38:33.343Z,64.86
2022-10-29T01:40:59.880Z,65.25
2022-10-29T01:44:05.991Z,65.46
2022-10-29T01:46:54.714Z,65.27
2022-10-29T01:49:28.425Z,64.90
2022-10-29T01:51:56.857Z,64.72
2022-10-29T01:54:23.839Z,64.45
2022-10-29T01:56:55.242Z,64.24
2022-10-29T01:59:35.674Z,64.55
2022-10-29T02:02:26.196Z,65.26
2022-10-29T02:05:15.706Z,65.13
2022-10-29T02:07:54.657Z,65.32
2022-10-29T02:10:28.665Z,65.51
2022-10-29T02:12:57.118Z,65.09
2022-10-29T02:15:48.444Z,65.54
2022-10-29T02:18:16.301Z,65.65
2022-10-29T02:20:45.486Z,66.11
2022-10-29T02:23:12.719Z,65.95
2022-10-29T02:25:39.538Z,65.60
2022-10-29T02:28:06.671Z,65.58
2022-10-29T02:30:33.606Z,65.31
2022-10-29T02:33:00.340Z,65.46
2022-10-29T02:35:26.992Z,65.27
2022-10-29T02:37:53.856Z,65.15
2022-10-29T02:40:20.431Z,64.71
2022-10-29T02:42:46.911Z,64.38
2022-10-29T02:45:13.502Z,64.33
2022-10-29T02:47:40.094Z,63.97
2022-10-29T02:50:07.409Z,63.97
2022-10-29T02:52:34.153Z,64.22
2022-10-29T02:55:01.042Z,64.30
2022-10-29T02:57:30.052Z,64.47
2022-10-29T02:59:59.962Z,64.31
2022-10-29T03:02:26.786Z,64.08
2022-10-29T03:04:53.450Z,63.88
2022-10-29T03:07:20.360Z,64.05
2022-10-29T03:09:46.902Z,64.01
2022-10-29T03:12:13.424Z,64.02
2022-10-29T03:14:39.998Z,64.67
2022-10-29T03:17:06.536Z,64.84
2022-10-29T03:19:33.104Z,64.63
2022-10-29T03:21:59.659Z,64.48
2022-10-29T03:24:26.239Z,64.79
2022-10-29T03:26:52.819Z,64.94
2022-10-29T03:29:19.500Z,65.07
2022-10-29T03:31:46.086Z,65.64
2022-10-29T03:34:12.644Z,65.90
2022-10-29T03:36:39.267Z,65.86
2022-10-29T03:39:06.141Z,65.45
2022-10-29T03:41:32.806Z,65.64
2022-10-29T03:43:59.365Z,65.02
2022-10-29T03:46:25.948Z,64.91
2022-10-29T03:48:52.514Z,64.75
2022-10-29T03:51:19.077Z,64.55
2022-10-29T03:53:45.644Z,63.71
2022-10-29T03:56:12.213Z,63.54
2022-10-29T03:58:38.827Z,63.01
2022-10-29T04:01:07.835Z,62.98
2022-10-29T04:03:36.245Z,62.63
2022-10-29T04:06:09.591Z,62.82
2022-10-29T04:08:36.218Z,63.13
2022-10-29T04:11:02.825Z,63.20
2022-10-29T04:13:29.528Z,62.65
2022-10-29T04:15:56.403Z,62.88
2022-10-29T04:18:24.532Z,62.64
2022-10-29T04:29:12.040Z,62.94
2022-10-29T04:31:38.901Z,62.19
2022-10-29T04:34:06.282Z,62.10
2022-10-29T04:36:32.915Z,61.64
2022-10-29T04:38:59.585Z,61.37
2022-10-29T04:41:26.235Z,61.35
2022-10-29T04:43:52.812Z,61.57
2022-10-29T04:46:19.385Z,61.10
2022-10-29T04:48:46.007Z,61.30
2022-10-29T04:51:19.734Z,61.29
2022-10-29T04:53:46.363Z,60.96
2022-10-29T04:56:12.906Z,61.09
2022-10-29T04:58:39.566Z,61.45
2022-10-29T05:01:06.482Z,61.26
2022-10-29T05:03:33.793Z,61.26
2022-10-29T05:06:06.315Z,61.51
2022-10-29T05:08:33.649Z,61.27
2022-10-29T05:11:05.045Z,60.92
2022-10-29T05:13:32.373Z,61.10
2022-10-29T05:15:59.043Z,60.76
2022-10-29T05:18:25.798Z,60.56
2022-10-29T05:20:56.289Z,60.63
2022-10-29T05:23:23.372Z,61.11
2022-10-29T05:25:52.075Z,60.84
2022-10-29T05:28:21.196Z,60.69
2022-10-29T05:30:49.452Z,60.87
2022-10-29T05:33:18.884Z,60.73
2022-10-29T05:35:46.209Z,60.72
2022-10-29T05:38:14.049Z,60.81
2022-10-29T05:40:42.741Z,60.71
2022-10-29T05:43:09.562Z,60.52
2022-10-29T05:45:36.129Z,60.15
2022-10-29T05:48:04.415Z,59.99
2022-10-29T05:50:32.403Z,60.12
2022-10-29T05:53:04.628Z,60.05
2022-10-29T05:55:33.283Z,59.67
2022-10-29T05:58:01.946Z,59.73
2022-10-29T06:00:31.257Z,59.57
2022-10-29T06:02:58.408Z,59.12
2022-10-29T06:05:26.001Z,58.85
2022-10-29T06:08:00.764Z,59.68
2022-10-29T06:10:29.184Z,59.68
2022-10-29T06:12:55.723Z,59.52
2022-10-29T06:15:23.081Z,59.58
2022-10-29T06:17:49.874Z,59.69
2022-10-29T06:20:20.919Z,59.63
2022-10-29T06:22:47.940Z,59.93
2022-10-29T06:25:14.668Z,59.98
2022-10-29T06:27:41.205Z,59.76
2022-10-29T06:30:08.527Z,60.29
2022-10-29T06:32:35.108Z,60.86
2022-10-29T06:35:01.669Z,60.42
2022-10-29T06:37:29.666Z,60.73
2022-10-29T06:39:56.311Z,60.60
2022-10-29T06:42:22.920Z,60.27
2022-10-29T06:44:49.681Z,60.63
2022-10-29T06:47:16.212Z,60.28
2022-10-29T06:49:42.827Z,60.58
2022-10-29T06:52:09.430Z,60.38
2022-10-29T06:54:38.776Z,60.29
2022-10-29T06:57:05.466Z,60.59
2022-10-29T06:59:32.248Z,60.43
2022-10-29T07:02:02.127Z,60.08
2022-10-29T07:04:29.235Z,59.75
2022-10-29T07:06:56.172Z,60.24
2022-10-29T07:09:22.801Z,60.18
2022-10-29T07:11:49.481Z,60.02
2022-10-29T07:14:16.001Z,60.09
2022-10-29T07:16:42.758Z,59.81
2022-10-29T07:19:09.683Z,59.32
2022-10-29T07:21:37.006Z,59.60
2022-10-29T07:24:03.826Z,59.72
2022-10-29T07:26:30.553Z,59.58
2022-10-29T07:28:57.859Z,59.18
2022-10-29T07:31:25.015Z,59.58
2022-10-29T07:33:51.686Z,58.87
2022-10-29T07:36:18.265Z,59.39
2022-10-29T07:38:45.044Z,58.79
2022-10-29T07:41:11.640Z,59.03
2022-10-29T07:43:38.410Z,58.73
2022-10-29T07:46:05.092Z,58.74
2022-10-29T07:48:31.643Z,58.51
2022-10-29T07:51:05.385Z,58.12
2022-10-29T07:53:32.691Z,57.76
2022-10-29T07:55:59.606Z,57.93
2022-10-29T07:58:27.237Z,58.25
2022-10-29T08:00:54.569Z,57.49
2022-10-29T08:03:21.866Z,57.55
2022-10-29T08:05:56.276Z,57.38
2022-10-29T08:08:26.685Z,57.16
2022-10-29T08:10:53.607Z,57.75
2022-10-29T08:13:20.268Z,57.48
2022-10-29T08:15:47.170Z,57.08
2022-10-29T08:18:18.016Z,56.99
2022-10-29T08:20:45.398Z,56.69
2022-10-29T08:23:13.239Z,56.18
2022-10-29T08:25:43.052Z,56.20
2022-10-29T08:28:15.137Z,56.08
2022-10-29T08:30:44.224Z,56.05
2022-10-29T08:33:11.474Z,55.60
2022-10-29T08:35:38.275Z,56.00
2022-10-29T08:38:05.468Z,55.36
2022-10-29T08:40:56.973Z,55.94
2022-10-29T08:43:48.861Z,55.87
2022-10-29T08:46:24.778Z,55.88
2022-10-29T08:49:02.648Z,55.71
2022-10-29T08:51:37.250Z,55.62
2022-10-29T08:54:25.635Z,55.64
2022-10-29T08:56:55.165Z,55.60
2022-10-29T08:59:24.736Z,55.48
2022-10-29T09:01:55.227Z,55.09
2022-10-29T09:04:26.384Z,54.54
2022-10-29T09:07:17.854Z,54.18
2022-10-29T09:09:53.836Z,53.38
2022-10-29T09:12:39.146Z,52.21
2022-10-29T09:15:27.157Z,53.25
2022-10-29T09:18:16.588Z,52.35
2022-10-29T09:20:51.964Z,53.44
2022-10-29T09:23:25.901Z,53.71
2022-10-29T09:26:01.200Z,53.51
2022-10-29T09:28:33.975Z,53.08
2022-10-29T09:31:31.466Z,53.42
2022-10-29T09:34:04.139Z,54.15
2022-10-29T09:36:31.687Z,54.10
2022-10-29T09:39:05.193Z,53.83
2022-10-29T09:41:34.622Z,53.05
2022-10-29T09:44:04.635Z,52.28
2022-10-29T09:46:31.078Z,52.28
2022-10-29T09:49:29.635Z,51.55
2022-10-29T09:52:02.527Z,51.67
2022-10-29T09:54:31.049Z,51.51
2022-10-29T09:57:00.976Z,50.87
2022-10-29T09:59:35.818Z,49.45
2022-10-29T10:02:04.458Z,49.40
2022-10-29T10:04:37.705Z,49.20
2022-10-29T10:07:05.979Z,48.82
2022-10-29T10:09:55.721Z,45.87
2022-10-29T10:12:26.645Z,45.51
2022-10-29T10:15:21.441Z,44.84
2022-10-29T10:18:04.837Z,45.36
2022-10-29T10:20:46.820Z,45.41
2022-10-29T10:23:24.684Z,45.69
2022-10-29T10:25:54.123Z,45.51
2022-10-29T10:28:25.631Z,44.65
2022-10-29T10:31:06.720Z,44.08
2022-10-29T10:33:36.062Z,43.13
2022-10-29T10:36:09.094Z,42.81
2022-10-29T10:38:54.077Z,43.00
2022-10-29T10:41:30.754Z,43.17
2022-10-29T10:44:03.776Z,44.39
2022-10-29T10:46:42.780Z,43.84
2022-10-29T10:49:20.919Z,43.59
2022-10-29T10:51:56.364Z,43.87
2022-10-29T10:54:31.417Z,43.28
2022-10-29T10:57:01.937Z,43.68
2022-10-29T10:59:43.040Z,43.93
2022-10-29T11:02:27.444Z,42.96
2022-10-29T11:05:14.976Z,44.14
2022-10-29T11:07:48.333Z,43.72
2022-10-29T11:10:18.276Z,44.17
2022-10-29T11:12:54.436Z,44.10
2022-10-29T11:15:39.383Z,44.00
2022-10-29T11:18:21.934Z,43.44
2022-10-29T11:21:05.448Z,44.70
2022-10-29T11:23:53.821Z,42.99
2022-10-29T11:26:45.223Z,43.38
2022-10-29T11:29:20.970Z,43.84
2022-10-29T11:32:11.315Z,43.60
2022-10-29T11:34:37.873Z,43.87
2022-10-29T11:37:21.352Z,44.42
2022-10-29T11:39:57.837Z,45.39
2022-10-29T11:42:25.474Z,45.55
2022-10-29T11:44:52.444Z,45.96
2022-10-29T11:47:27.294Z,45.71
2022-10-29T11:50:03.000Z,46.23
2022-10-29T11:52:46.532Z,46.33
2022-10-29T11:55:23.585Z,46.36
2022-10-29T11:58:01.369Z,46.19
2022-10-29T12:00:34.626Z,46.25
2022-10-29T12:03:16.378Z,46.23
2022-10-29T12:05:59.448Z,45.49
2022-10-29T12:08:25.910Z,45.67
2022-10-29T12:11:07.772Z,45.90
2022-10-29T12:13:43.575Z,46.12
2022-10-29T12:16:35.529Z,45.41
2022-10-29T12:19:33.488Z,46.24
2022-10-29T12:22:19.132Z,45.16
2022-10-29T12:25:26.052Z,45.48
2022-10-29T12:28:05.525Z,45.19
2022-10-29T12:30:34.606Z,44.80
2022-10-29T12:33:10.505Z,44.73
2022-10-29T12:35:47.939Z,44.43
2022-10-29T12:38:40.807Z,44.46
2022-10-29T12:41:23.407Z,44.43
2022-10-29T12:43:51.653Z,45.27
2022-10-29T12:46:39.848Z,45.71
2022-10-29T12:49:37.973Z,45.59
2022-10-29T12:52:16.428Z,46.00
2022-10-29T12:54:49.683Z,46.61
2022-10-29T12:57:16.354Z,47.01
2022-10-29T12:59:44.578Z,46.16
2022-10-29T13:02:38.668Z,45.71
2022-10-29T13:05:11.214Z,45.32
2022-10-29T13:07:59.295Z,45.48
2022-10-29T13:10:35.492Z,46.01
2022-10-29T13:13:16.058Z,46.48
2022-10-29T13:15:48.075Z,47.04
2022-10-29T13:18:21.991Z,46.48
2022-10-29T13:20:51.291Z,47.05
2022-10-29T13:23:23.830Z,46.71
2022-10-29T13:25:57.284Z,47.30
2022-10-29T13:28:23.971Z,47.07
2022-10-29T13:31:13.525Z,46.74
2022-10-29T13:33:40.127Z,46.73
2022-10-29T13:36:15.628Z,46.95
2022-10-29T13:39:04.603Z,46.36
2022-10-29T13:41:42.535Z,46.84
2022-10-29T13:44:19.312Z,46.98
2022-10-29T13:47:19.820Z,47.51
2022-10-29T13:49:48.612Z,47.24
2022-10-29T13:52:24.358Z,47.37
2022-10-29T13:55:00.479Z,47.80
2022-10-29T13:57:36.271Z,47.25
2022-10-29T14:00:11.960Z,47.71
2022-10-29T14:02:39.658Z,47.32
2022-10-29T14:05:13.370Z,47.89
2022-10-29T14:07:52.949Z,47.67
2022-10-29T14:10:59.270Z,48.39
2022-10-29T14:13:43.515Z,48.80
2022-10-29T14:16:12.121Z,48.36
2022-10-29T14:18:41.728Z,48.64
2022-10-29T14:21:25.312Z,48.86
2022-10-29T14:23:57.410Z,49.55
2022-10-29T14:26:24.922Z,49.51
2022-10-29T14:28:52.597Z,49.58
2022-10-29T14:31:21.127Z,49.30
2022-10-29T14:33:59.002Z,49.32
2022-10-29T14:36:28.205Z,49.70
2022-10-29T14:39:03.145Z,49.71
2022-10-29T14:41:31.445Z,49.34
2022-10-29T14:44:04.092Z,49.93
2022-10-29T14:46:34.188Z,49.88
2022-10-29T14:49:12.371Z,50.05
2022-10-29T14:51:47.893Z,49.92
2022-10-29T14:54:22.713Z,50.43
2022-10-29T14:56:53.985Z,50.79
2022-10-29T14:59:26.427Z,50.68
2022-10-29T15:02:05.720Z,50.78
2022-10-29T15:04:56.758Z,50.78
2022-10-29T15:07:23.501Z,51.68
2022-10-29T15:10:01.766Z,51.75
2022-10-29T15:12:36.963Z,51.51
2022-10-29T15:15:21.147Z,51.59
2022-10-29T15:17:59.530Z,51.90
2022-10-29T15:20:44.470Z,51.86
2022-10-29T15:23:41.354Z,52.28
2022-10-29T15:26:14.210Z,51.81
2022-10-29T15:28:43.377Z,52.35
2022-10-29T15:31:24.312Z,52.45
2022-10-29T15:33:53.500Z,52.43
2022-10-29T15:36:20.790Z,52.92
2022-10-29T15:38:52.043Z,52.79
2022-10-29T15:41:46.291Z,52.88
2022-10-29T15:44:35.415Z,53.13
2022-10-29T15:47:18.783Z,54.32
2022-10-29T15:49:45.458Z,54.27
2022-10-29T15:52:17.631Z,54.24
2022-10-29T15:54:45.086Z,54.34
2022-10-29T15:57:14.370Z,54.55
2022-10-29T15:59:41.712Z,54.84
2022-10-29T16:02:13.644Z,54.52
2022-10-29T16:04:40.746Z,55.29
2022-10-29T16:07:12.492Z,55.53
2022-10-29T16:09:43.658Z,56.11
2022-10-29T16:12:10.975Z,55.94
2022-10-29T16:14:37.527Z,56.20
2022-10-29T16:17:10.350Z,56.28
2022-10-29T16:19:36.954Z,56.59
2022-10-29T16:22:03.553Z,56.74
2022-10-29T16:24:30.342Z,56.87
2022-10-29T16:26:56.977Z,57.16
2022-10-29T16:29:23.813Z,57.37
2022-10-29T16:31:50.353Z,57.18
2022-10-29T16:34:19.386Z,57.13
2022-10-29T16:36:48.875Z,57.76
2022-10-29T16:39:15.532Z,57.65
2022-10-29T16:41:42.200Z,57.65
2022-10-29T16:44:08.785Z,57.65
2022-10-29T16:46:35.337Z,57.50
2022-10-29T16:49:01.920Z,58.43
2022-10-29T16:51:28.522Z,57.63
2022-10-29T16:53:55.131Z,57.84
2022-10-29T16:56:21.819Z,58.36
2022-10-29T16:58:48.439Z,58.61
2022-10-29T17:01:15.296Z,57.93
2022-10-29T17:03:42.064Z,58.31
2022-10-29T17:06:10.483Z,58.66
2022-10-29T17:08:38.167Z,59.00
2022-10-29T17:11:06.682Z,59.08
2022-10-29T17:13:34.441Z,58.75
2022-10-29T17:16:01.271Z,59.04
2022-10-29T17:18:27.843Z,59.07
2022-10-29T17:20:59.112Z,59.12
2022-10-29T17:23:26.064Z,58.69
2022-10-29T17:25:57.289Z,58.89
2022-10-29T17:28:25.686Z,58.78
2022-10-29T17:30:52.625Z,59.44
2022-10-29T17:33:19.627Z,59.26
2022-10-29T17:35:46.267Z,59.83
2022-10-29T17:38:12.900Z,59.95
2022-10-29T17:40:39.913Z,60.02
2022-10-29T17:43:06.681Z,60.42
2022-10-29T17:45:33.354Z,61.04
2022-10-29T17:48:00.404Z,60.83
2022-10-29T17:50:27.386Z,61.05
2022-10-29T17:52:54.920Z,60.89
2022-10-29T17:55:21.458Z,61.45
2022-10-29T17:57:47.980Z,61.04
2022-10-29T18:00:15.233Z,61.54
2022-10-29T18:02:42.201Z,61.41
2022-10-29T18:05:09.121Z,61.78
2022-10-29T18:07:35.900Z,61.33
2022-10-29T18:10:02.552Z,61.53
2022-10-29T18:12:29.327Z,61.46
2022-10-29T18:14:56.058Z,60.95
2022-10-29T18:17:22.853Z,61.61
2022-10-29T18:19:49.801Z,61.35
2022-10-29T18:22:16.746Z,61.66
2022-10-29T18:24:43.433Z,61.88
2022-10-29T18:27:10.233Z,62.31
2022-10-29T18:29:36.887Z,62.23
2022-10-29T18:32:03.707Z,62.42
2022-10-29T18:34:31.754Z,62.29
2022-10-29T18:36:58.420Z,62.28
2022-10-29T18:39:25.227Z,62.24
2022-10-29T18:41:54.934Z,62.41
2022-10-29T18:44:21.520Z,62.52
2022-10-29T18:46:48.213Z,62.88
2022-10-29T18:49:15.563Z,62.64
2022-10-29T18:51:42.434Z,63.30
2022-10-29T18:54:11.838Z,62.87
2022-10-29T18:56:38.949Z,63.02
2022-10-29T18:59:05.841Z,63.12
2022-10-29T19:01:34.675Z,63.31
2022-10-29T19:04:04.017Z,63.17
2022-10-29T19:06:32.640Z,62.83
2022-10-29T19:09:04.451Z,63.63
2022-10-29T19:11:31.946Z,63.42
2022-10-29T19:14:01.088Z,63.47
2022-10-29T19:16:32.091Z,62.99
2022-10-29T19:19:00.965Z,63.64
2022-10-29T19:21:27.881Z,63.68
2022-10-29T19:23:59.662Z,63.49
2022-10-29T19:26:30.230Z,63.48
2022-10-29T19:28:59.976Z,63.51
2022-10-29T19:31:28.175Z,63.48
2022-10-29T19:33:58.002Z,63.72
2022-10-29T19:36:26.795Z,63.95
2022-10-29T19:38:53.709Z,63.93
2022-10-29T19:41:20.519Z,63.81
2022-10-29T19:43:47.310Z,64.03
2022-10-29T19:46:17.069Z,63.80
2022-10-29T19:48:48.432Z,64.14
2022-10-29T19:51:15.316Z,63.82
2022-10-29T19:53:41.938Z,64.13
2022-10-29T19:56:11.507Z,63.56
2022-10-29T19:58:38.099Z,63.74
2022-10-29T20:01:07.388Z,63.51
2022-10-29T20:03:34.400Z,63.49
2022-10-29T20:06:00.979Z,63.54
2022-10-29T20:08:27.633Z,63.37
2022-10-29T20:10:55.870Z,63.52
2022-10-29T20:13:22.869Z,63.52
2022-10-29T20:15:49.734Z,63.74
2022-10-29T20:18:16.444Z,63.08
2022-10-29T20:20:43.314Z,63.61
2022-10-29T20:23:10.142Z,63.46
2022-10-29T20:25:39.646Z,63.70
2022-10-29T20:28:06.463Z,63.44
2022-10-29T20:30:33.066Z,63.89
2022-10-29T20:32:59.956Z,63.71
2022-10-29T20:35:26.781Z,63.87
2022-10-29T20:37:53.653Z,63.73
2022-10-29T20:40:20.384Z,63.35
2022-10-29T20:42:50.742Z,63.82
2022-10-29T20:45:19.604Z,63.88
2022-10-29T20:47:46.284Z,64.09
2022-10-29T20:50:12.928Z,63.55
2022-10-29T20:52:43.180Z,63.67
2022-10-29T20:55:12.396Z,64.09
2022-10-29T20:57:39.094Z,63.54
2022-10-29T21:00:06.636Z,63.96
2022-10-29T21:02:33.986Z,63.92
2022-10-29T21:05:00.661Z,64.09
2022-10-29T21:07:27.369Z,63.64
2022-10-29T21:09:53.975Z,64.15
2022-10-29T21:12:20.615Z,63.80
2022-10-29T21:14:47.324Z,63.39
2022-10-29T21:17:14.514Z,63.50
2022-10-29T21:19:41.157Z,63.29
2022-10-29T21:22:07.894Z,62.81
2022-10-29T21:24:35.610Z,62.87
2022-10-29T21:27:02.722Z,63.25
2022-10-29T21:29:29.391Z,63.10
2022-10-29T21:31:56.109Z,62.87
2022-10-29T21:34:23.097Z,63.34
2022-10-29T21:36:49.993Z,62.92
2022-10-29T21:39:18.755Z,63.08
2022-10-29T21:41:45.457Z,62.87
2022-10-29T21:44:12.184Z,62.84
2022-10-29T21:46:38.782Z,62.57
2022-10-29T21:49:05.479Z,62.94
2022-10-29T21:51:32.244Z,63.24
2022-10-29T21:53:58.867Z,63.19
2022-10-29T21:56:25.612Z,62.66
2022-10-29T21:58:55.048Z,62.34
2022-10-29T22:01:21.876Z,62.82
2022-10-29T22:03:48.807Z,62.74
2022-10-29T22:06:20.600Z,62.89
2022-10-29T22:08:51.863Z,63.36
2022-10-29T22:11:18.424Z,62.80
2022-10-29T22:13:45.063Z,63.11
2022-10-29T22:16:11.954Z,63.40
2022-10-29T22:18:39.480Z,63.29
2022-10-29T22:21:14.801Z,63.59
2022-10-29T22:23:43.375Z,63.56
2022-10-29T22:26:10.252Z,63.76
2022-10-29T22:28:36.870Z,63.67
2022-10-29T22:31:04.528Z,64.09
2022-10-29T22:33:32.032Z,63.75
2022-10-29T22:36:10.320Z,63.74
2022-10-29T22:38:37.405Z,63.48
2022-10-29T22:41:08.322Z,63.68
2022-10-29T22:43:35.502Z,63.81
2022-10-29T22:46:03.593Z,63.39
2022-10-29T22:48:30.496Z,63.59
2022-10-29T22:51:03.071Z,64.08
2022-10-29T22:53:30.165Z,64.14
2022-10-29T22:55:56.736Z,63.99
2022-10-29T22:58:23.484Z,64.54
2022-10-29T23:01:00.915Z,64.42
2022-10-29T23:03:27.512Z,64.84
2022-10-29T23:06:01.878Z,64.99
2022-10-29T23:08:29.174Z,64.38
2022-10-29T23:10:55.721Z,64.53
2022-10-29T23:13:22.341Z,64.44
2022-10-29T23:15:53.415Z,64.27
2022-10-29T23:18:20.061Z,64.42
2022-10-29T23:20:50.214Z,63.98
2022-10-29T23:23:17.129Z,64.49
2022-10-29T23:25:43.651Z,64.07
2022-10-29T23:28:10.201Z,64.19
2022-10-29T23:30:36.838Z,64.18
2022-10-29T23:33:03.551Z,64.08
2022-10-29T23:35:30.111Z,64.15
2022-10-29T23:37:57.027Z,64.15
2022-10-29T23:40:23.803Z,63.90
2022-10-29T23:42:50.370Z,64.36
2022-10-29T23:45:17.158Z,64.18
2022-10-29T23:47:43.852Z,64.18
2022-10-29T23:50:10.550Z,63.70
2022-10-29T23:52:37.202Z,64.26
2022-10-29T23:55:03.906Z,64.09
2022-10-29T23:57:30.522Z,64.30
2022-10-29T23:59:57.128Z,63.81
